createdAt,value
2023-02-09T00:01:34.830Z,-1.80
2023-02-09T00:04:02.539Z,-1.80
2023-02-09T00:06:33.195Z,-1.90
2023-02-09T00:08:59.799Z,-1.80
2023-02-09T00:12:01.947Z,-1.90
2023-02-09T00:14:28.604Z,-1.90
2023-02-09T00:16:55.269Z,-1.90
2023-02-09T00:19:21.879Z,-1.90
2023-02-09T00:21:49.147Z,-1.90
2023-02-09T00:24:16.377Z,-1.90
2023-02-09T00:26:43.285Z,-1.80
2023-02-09T00:29:10.617Z,-1.90
2023-02-09T00:31:37.395Z,-1.90
2023-02-09T00:34:04.213Z,-1.90
2023-02-09T00:36:31.714Z,-1.90
2023-02-09T00:38:59.539Z,-1.90
2023-02-09T00:41:44.707Z,-2.00
2023-02-09T00:44:12.434Z,-2.00
2023-02-09T00:46:39.000Z,-2.00
2023-02-09T00:49:05.967Z,-2.00
2023-02-09T00:51:32.650Z,-2.00
2023-02-09T00:53:59.258Z,-2.00
2023-02-09T00:56:25.974Z,-2.10
2023-02-09T00:58:52.558Z,-2.10
2023-02-09T01:01:19.250Z,-2.10
2023-02-09T01:03:45.895Z,-2.10
2023-02-09T01:06:12.501Z,-2.10
2023-02-09T01:08:39.134Z,-2.20
2023-02-09T01:11:10.798Z,-2.20
2023-02-09T01:13:37.980Z,-2.20
2023-02-09T01:16:14.796Z,-2.20
2023-02-09T01:18:42.728Z,-2.20
2023-02-09T01:21:14.821Z,-2.30
2023-02-09T01:23:41.465Z,-2.30
2023-02-09T01:26:10.483Z,-2.30
2023-02-09T01:28:37.977Z,-2.40
2023-02-09T01:31:06.630Z,-2.40
2023-02-09T01:33:33.354Z,-2.30
2023-02-09T01:36:04.894Z,-2.40
2023-02-09T01:38:31.482Z,-2.40
2023-02-09T01:40:58.056Z,-2.50
2023-02-09T01:43:24.659Z,-2.50
2023-02-09T01:45:56.110Z,-2.50
2023-02-09T01:48:30.297Z,-2.50
2023-02-09T01:51:00.256Z,-2.50
2023-02-09T01:53:28.091Z,-2.40
2023-02-09T01:56:02.197Z,-2.40
2023-02-09T01:58:29.076Z,-2.40
2023-02-09T02:00:55.694Z,-2.40
2023-02-09T02:03:26.119Z,-2.30
2023-02-09T02:05:59.115Z,-2.30
2023-02-09T02:08:33.966Z,-2.30
2023-02-09T02:11:00.684Z,-2.40
2023-02-09T02:13:27.429Z,-2.40
2023-02-09T02:16:06.061Z,-2.50
2023-02-09T02:18:52.417Z,-2.50
2023-02-09T02:21:40.616Z,-2.60
2023-02-09T02:24:43.065Z,-2.60
2023-02-09T02:27:20.949Z,-2.60
2023-02-09T02:30:28.013Z,-2.60
2023-02-09T02:33:24.492Z,-2.60
2023-02-09T02:36:03.276Z,-2.60
2023-02-09T02:39:04.275Z,-2.90
2023-02-09T02:42:12.488Z,-2.70
2023-02-09T02:44:42.932Z,-2.70
2023-02-09T02:47:17.117Z,-2.60
2023-02-09T02:49:51.338Z,-2.70
2023-02-09T02:52:17.961Z,-2.90
2023-02-09T02:55:07.818Z,-2.70
2023-02-09T02:57:39.040Z,-2.80
2023-02-09T03:00:20.938Z,-2.80
2023-02-09T03:02:53.386Z,-2.80
2023-02-09T03:05:23.063Z,-2.80
2023-02-09T03:07:50.523Z,-2.70
2023-02-09T03:10:34.418Z,-2.70
2023-02-09T03:13:37.193Z,-2.70
2023-02-09T03:16:21.088Z,-2.70
2023-02-09T03:19:25.035Z,-2.80
2023-02-09T03:22:26.681Z,-2.80
2023-02-09T03:25:07.352Z,-2.80
2023-02-09T03:27:41.541Z,-2.80
2023-02-09T03:30:12.445Z,-2.80
2023-02-09T03:32:44.523Z,-2.70
2023-02-09T03:35:15.084Z,-2.70
2023-02-09T03:37:41.861Z,-2.80
2023-02-09T03:40:09.558Z,-2.80
2023-02-09T03:42:36.128Z,-2.80
2023-02-09T03:45:03.016Z,-2.80
2023-02-09T03:47:30.761Z,-2.80
2023-02-09T03:49:58.285Z,-3.00
2023-02-09T03:52:24.895Z,-3.00
2023-02-09T03:54:51.527Z,-3.10
2023-02-09T03:57:18.220Z,-3.00
2023-02-09T03:59:44.918Z,-2.90
2023-02-09T04:02:11.593Z,-2.90
2023-02-09T04:04:38.192Z,-2.90
2023-02-09T04:07:05.141Z,-3.00
2023-02-09T04:09:31.749Z,-3.00
2023-02-09T04:11:58.358Z,-2.90
2023-02-09T04:14:25.945Z,-3.50
2023-02-09T04:16:52.506Z,-2.90
2023-02-09T04:19:19.086Z,-2.80
2023-02-09T04:21:45.727Z,-2.80
2023-02-09T04:24:12.489Z,-2.70
2023-02-09T04:26:39.071Z,-3.20
2023-02-09T04:29:05.701Z,-2.80
2023-02-09T04:31:32.407Z,-2.80
2023-02-09T04:33:59.038Z,-2.80
2023-02-09T04:36:25.722Z,-2.80
2023-02-09T04:38:52.354Z,-2.80
2023-02-09T04:41:19.074Z,-2.80
2023-02-09T04:43:46.736Z,-2.90
2023-02-09T04:46:15.185Z,-2.80
2023-02-09T04:48:42.907Z,-2.80
2023-02-09T04:51:09.672Z,-2.80
2023-02-09T04:53:37.049Z,-2.80
2023-02-09T04:56:03.977Z,-2.90
2023-02-09T04:58:49.606Z,-2.90
2023-02-09T05:01:20.948Z,-2.90
2023-02-09T05:03:47.577Z,-3.30
2023-02-09T05:06:14.474Z,-2.90
2023-02-09T05:08:41.042Z,-2.80
2023-02-09T05:11:07.606Z,-2.90
2023-02-09T05:13:34.478Z,-2.90
2023-02-09T05:16:05.576Z,-2.90
2023-02-09T05:18:32.106Z,-2.90
2023-02-09T05:20:58.675Z,-2.90
2023-02-09T05:23:25.226Z,-2.90
2023-02-09T05:25:52.058Z,-3.00
2023-02-09T05:28:18.691Z,-3.00
2023-02-09T05:30:49.608Z,-3.00
2023-02-09T05:33:16.176Z,-3.00
2023-02-09T05:35:42.722Z,-3.00
2023-02-09T05:38:09.324Z,-2.90
2023-02-09T05:40:35.867Z,-2.90
2023-02-09T05:43:03.315Z,-2.90
2023-02-09T05:45:29.929Z,-2.90
2023-02-09T05:47:56.533Z,-3.00
2023-02-09T05:50:23.232Z,-2.90
2023-02-09T05:52:49.847Z,-2.90
2023-02-09T05:55:16.454Z,-2.90
2023-02-09T05:57:43.070Z,-3.00
2023-02-09T06:00:10.544Z,-2.90
2023-02-09T06:02:37.143Z,-2.90
2023-02-09T06:05:03.809Z,-2.60
2023-02-09T06:07:30.405Z,-2.60
2023-02-09T06:09:56.991Z,-3.00
2023-02-09T06:12:23.524Z,-3.00
2023-02-09T06:14:50.107Z,-3.00
2023-02-09T06:17:16.692Z,-2.90
2023-02-09T06:19:43.228Z,-2.90
2023-02-09T06:22:09.779Z,-2.90
2023-02-09T06:24:36.348Z,-2.90
2023-02-09T06:27:02.897Z,-2.90
2023-02-09T06:29:29.498Z,-2.90
2023-02-09T06:31:56.190Z,-2.90
2023-02-09T06:34:22.866Z,-3.00
2023-02-09T06:36:49.409Z,-3.00
2023-02-09T06:39:15.969Z,-2.50
2023-02-09T06:41:42.552Z,-2.90
2023-02-09T06:44:09.223Z,-2.60
2023-02-09T06:46:35.806Z,-2.90
2023-02-09T06:49:02.536Z,-2.90
2023-02-09T06:51:29.239Z,-2.70
2023-02-09T06:53:55.910Z,-2.90
2023-02-09T06:56:22.774Z,-2.60
2023-02-09T06:58:49.337Z,-2.90
2023-02-09T07:01:16.222Z,-2.90
2023-02-09T07:03:43.394Z,-2.80
2023-02-09T07:06:18.963Z,-2.90
2023-02-09T07:08:46.112Z,-2.80
2023-02-09T07:11:15.403Z,-2.80
2023-02-09T07:13:42.694Z,-2.80
2023-02-09T07:16:11.014Z,-2.80
2023-02-09T07:18:38.363Z,-2.80
2023-02-09T07:21:08.524Z,-2.70
2023-02-09T07:23:35.478Z,-2.70
2023-02-09T07:26:04.047Z,-2.70
2023-02-09T07:28:31.302Z,-2.60
2023-02-09T07:31:06.305Z,-2.60
2023-02-09T07:33:34.500Z,-2.60
2023-02-09T07:36:07.672Z,-2.60
2023-02-09T07:38:34.917Z,-2.60
2023-02-09T07:41:03.166Z,-2.60
2023-02-09T07:43:29.974Z,-3.00
2023-02-09T07:46:04.813Z,-2.50
2023-02-09T07:48:31.798Z,-2.40
2023-02-09T07:50:58.880Z,-2.40
2023-02-09T07:53:26.231Z,-2.30
2023-02-09T07:55:53.251Z,-2.20
2023-02-09T07:58:21.214Z,-2.20
2023-02-09T08:00:49.863Z,-2.20
2023-02-09T08:03:18.988Z,-2.10
2023-02-09T08:05:57.304Z,-2.10
2023-02-09T08:08:23.884Z,-2.20
2023-02-09T08:10:50.888Z,-2.10
2023-02-09T08:13:17.781Z,-2.00
2023-02-09T08:15:49.188Z,-2.20
2023-02-09T08:18:39.812Z,-1.90
2023-02-09T08:21:09.280Z,-1.90
2023-02-09T08:23:38.407Z,-1.80
2023-02-09T08:26:09.851Z,-1.80
2023-02-09T08:28:44.154Z,-1.70
2023-02-09T08:31:17.752Z,-1.70
2023-02-09T08:33:45.664Z,-1.60
2023-02-09T08:36:13.409Z,-1.50
2023-02-09T08:38:40.336Z,-1.60
2023-02-09T08:41:11.133Z,-1.50
2023-02-09T08:43:37.841Z,-1.40
2023-02-09T08:46:07.042Z,-1.40
2023-02-09T08:48:36.065Z,-1.30
2023-02-09T08:51:03.616Z,-1.30
2023-02-09T08:53:30.509Z,-1.20
2023-02-09T08:55:57.429Z,-1.10
2023-02-09T08:58:25.260Z,-1.10
2023-02-09T09:00:53.390Z,-1.00
2023-02-09T09:03:20.330Z,-0.90
2023-02-09T09:05:47.174Z,-0.90
2023-02-09T09:08:14.018Z,-0.80
2023-02-09T09:10:40.590Z,-0.60
2023-02-09T09:13:07.158Z,-0.70
2023-02-09T09:15:35.212Z,-0.50
2023-02-09T09:18:01.841Z,-0.40
2023-02-09T09:20:28.442Z,-0.20
2023-02-09T09:22:59.281Z,-0.30
2023-02-09T09:25:25.854Z,-0.20
2023-02-09T09:27:52.495Z,-0.20
2023-02-09T09:30:19.245Z,-0.30
2023-02-09T09:32:45.873Z,-0.30
2023-02-09T09:35:12.521Z,-0.20
2023-02-09T09:37:40.578Z,-0.10
2023-02-09T09:40:10.117Z,0.10
2023-02-09T09:42:44.186Z,0.10
2023-02-09T09:45:19.054Z,0.20
2023-02-09T09:47:45.651Z,0.20
2023-02-09T09:50:41.560Z,0.20
2023-02-09T09:53:33.216Z,0.30
2023-02-09T09:56:03.994Z,0.40
2023-02-09T09:58:32.207Z,0.60
2023-02-09T10:00:58.824Z,0.60
2023-02-09T10:03:26.206Z,1.30
2023-02-09T10:05:55.901Z,0.60
2023-02-09T10:08:49.834Z,0.60
2023-02-09T10:11:20.199Z,0.60
2023-02-09T10:13:52.493Z,0.70
2023-02-09T10:16:29.038Z,0.80
2023-02-09T10:18:58.310Z,0.80
2023-02-09T10:21:27.969Z,0.70
2023-02-09T10:24:00.528Z,0.80
2023-02-09T10:26:39.299Z,0.80
2023-02-09T10:29:14.864Z,1.00
2023-02-09T10:31:44.498Z,1.20
2023-02-09T10:34:17.989Z,1.30
2023-02-09T10:37:04.808Z,1.30
2023-02-09T10:39:34.088Z,1.40
2023-02-09T10:42:28.696Z,1.50
2023-02-09T10:44:57.817Z,1.60
2023-02-09T10:47:27.200Z,1.60
2023-02-09T10:50:13.642Z,1.70
2023-02-09T10:52:55.244Z,1.80
2023-02-09T10:55:29.756Z,1.80
2023-02-09T10:58:11.582Z,1.80
2023-02-09T11:00:49.232Z,2.10
2023-02-09T11:03:22.982Z,1.90
2023-02-09T11:06:03.516Z,2.00
2023-02-09T11:08:41.544Z,2.20
2023-02-09T11:11:22.204Z,2.20
2023-02-09T11:13:48.844Z,2.20
2023-02-09T11:16:53.812Z,2.30
2023-02-09T11:19:22.481Z,2.30
2023-02-09T11:22:12.980Z,2.30
2023-02-09T11:25:17.267Z,2.30
2023-02-09T11:27:58.106Z,2.30
2023-02-09T11:30:57.023Z,2.40
2023-02-09T11:33:57.418Z,2.40
2023-02-09T11:36:55.041Z,2.40
2023-02-09T11:39:50.524Z,2.40
2023-02-09T11:42:46.496Z,2.20
2023-02-09T11:45:20.050Z,2.40
2023-02-09T11:48:16.033Z,2.40
2023-02-09T11:51:03.481Z,2.40
2023-02-09T11:53:50.012Z,2.50
2023-02-09T11:56:24.276Z,2.50
2023-02-09T11:59:23.688Z,2.50
2023-02-09T12:02:16.748Z,2.70
2023-02-09T12:04:55.222Z,2.80
2023-02-09T12:07:54.203Z,2.80
2023-02-09T12:10:32.523Z,2.80
2023-02-09T12:13:12.767Z,3.00
2023-02-09T12:15:45.559Z,3.00
2023-02-09T12:18:16.194Z,3.00
2023-02-09T12:20:54.330Z,3.00
2023-02-09T12:23:34.107Z,3.10
2023-02-09T12:26:03.064Z,3.30
2023-02-09T12:28:32.751Z,3.30
2023-02-09T12:31:02.286Z,3.70
2023-02-09T12:33:31.130Z,3.40
2023-02-09T12:36:02.374Z,3.20
2023-02-09T12:38:49.325Z,3.20
2023-02-09T12:41:18.702Z,3.20
2023-02-09T12:43:46.061Z,3.20
2023-02-09T12:46:15.075Z,3.20
2023-02-09T12:48:49.050Z,3.20
2023-02-09T12:51:42.212Z,3.20
2023-02-09T12:54:39.371Z,3.30
2023-02-09T12:57:15.140Z,3.40
2023-02-09T13:00:04.971Z,3.30
2023-02-09T13:02:43.148Z,3.20
2023-02-09T13:05:17.634Z,3.30
2023-02-09T13:08:11.203Z,3.20
2023-02-09T13:11:15.358Z,3.20
2023-02-09T13:13:51.459Z,3.20
2023-02-09T13:16:36.918Z,3.40
2023-02-09T13:19:46.017Z,3.50
2023-02-09T13:22:44.311Z,3.50
2023-02-09T13:25:34.250Z,3.60
2023-02-09T13:28:20.390Z,3.60
2023-02-09T13:30:47.225Z,3.50
2023-02-09T13:34:00.314Z,3.50
2023-02-09T13:37:01.617Z,3.50
2023-02-09T13:39:34.981Z,3.30
2023-02-09T13:42:01.878Z,3.50
2023-02-09T13:44:31.979Z,3.40
2023-02-09T13:47:00.594Z,3.30
2023-02-09T13:49:29.256Z,3.40
2023-02-09T13:52:14.683Z,3.60
2023-02-09T13:54:43.142Z,3.70
2023-02-09T13:57:32.153Z,3.80
2023-02-09T14:00:05.668Z,3.70
2023-02-09T14:02:34.605Z,3.80
2023-02-09T14:05:05.542Z,3.70
2023-02-09T14:07:37.673Z,3.60
2023-02-09T14:10:14.728Z,3.50
2023-02-09T14:12:56.480Z,3.40
2023-02-09T14:15:48.379Z,4.40
2023-02-09T14:18:48.014Z,3.50
2023-02-09T14:21:21.749Z,3.60
2023-02-09T14:24:04.458Z,3.50
2023-02-09T14:26:42.214Z,3.30
2023-02-09T14:29:22.040Z,3.30
2023-02-09T14:31:51.098Z,3.30
2023-02-09T14:34:38.406Z,3.30
2023-02-09T14:37:11.275Z,3.10
2023-02-09T14:40:07.110Z,3.10
2023-02-09T14:42:39.158Z,3.30
2023-02-09T14:45:14.982Z,3.30
2023-02-09T14:47:43.985Z,3.30
2023-02-09T14:50:13.818Z,3.30
2023-02-09T14:52:46.793Z,3.20
2023-02-09T14:55:18.582Z,3.20
2023-02-09T14:57:45.229Z,3.20
2023-02-09T15:00:22.236Z,3.20
2023-02-09T15:02:50.988Z,3.20
2023-02-09T15:05:19.105Z,3.10
2023-02-09T15:07:49.637Z,3.00
2023-02-09T15:10:34.098Z,2.90
2023-02-09T15:13:03.091Z,2.90
2023-02-09T15:15:29.682Z,3.00
2023-02-09T15:17:58.525Z,3.00
2023-02-09T15:20:25.531Z,3.00
2023-02-09T15:22:53.764Z,3.00
2023-02-09T15:25:21.453Z,3.00
2023-02-09T15:27:59.518Z,2.80
2023-02-09T15:30:32.930Z,2.70
2023-02-09T15:32:59.785Z,2.60
2023-02-09T15:35:28.530Z,2.70
2023-02-09T15:37:59.969Z,2.60
2023-02-09T15:40:52.134Z,2.50
2023-02-09T15:43:39.690Z,2.50
2023-02-09T15:46:10.816Z,2.40
2023-02-09T15:48:37.392Z,2.40
2023-02-09T15:51:04.174Z,2.40
2023-02-09T15:53:31.986Z,2.30
2023-02-09T15:55:59.263Z,2.20
2023-02-09T15:58:35.757Z,2.30
2023-02-09T16:01:03.095Z,2.20
2023-02-09T16:03:31.711Z,2.20
2023-02-09T16:06:07.524Z,2.20
2023-02-09T16:08:35.440Z,2.10
2023-02-09T16:11:02.502Z,2.10
2023-02-09T16:13:29.080Z,2.10
2023-02-09T16:16:02.592Z,2.10
2023-02-09T16:18:37.810Z,2.10
2023-02-09T16:21:04.942Z,2.10
2023-02-09T16:23:32.841Z,2.10
2023-02-09T16:26:01.614Z,2.00
2023-02-09T16:28:28.388Z,2.00
2023-02-09T16:30:57.375Z,2.00
2023-02-09T16:33:25.369Z,1.70
2023-02-09T16:36:01.322Z,1.70
2023-02-09T16:38:28.922Z,1.70
2023-02-09T16:40:56.386Z,1.60
2023-02-09T16:43:23.560Z,1.80
2023-02-09T16:46:02.774Z,1.80
2023-02-09T16:48:32.433Z,1.80
2023-02-09T16:50:59.234Z,3.30
2023-02-09T16:53:34.811Z,1.70
2023-02-09T16:56:04.780Z,1.60
2023-02-09T16:58:31.416Z,1.50
2023-02-09T17:00:58.280Z,1.60
2023-02-09T17:03:39.212Z,1.50
2023-02-09T17:06:08.926Z,1.50
2023-02-09T17:08:35.508Z,1.50
2023-02-09T17:11:04.390Z,1.50
2023-02-09T17:13:31.609Z,1.50
2023-02-09T17:16:04.842Z,1.50
2023-02-09T17:18:34.762Z,1.60
2023-02-09T17:21:14.585Z,1.60
2023-02-09T17:23:42.658Z,1.60
2023-02-09T17:26:11.355Z,1.70
2023-02-09T17:28:37.985Z,1.70
2023-02-09T17:31:18.933Z,1.80
2023-02-09T17:33:48.269Z,1.70
2023-02-09T17:36:31.140Z,1.70
2023-02-09T17:38:59.431Z,1.80
2023-02-09T17:41:33.681Z,1.70
2023-02-09T17:44:39.192Z,1.70
2023-02-09T17:47:14.024Z,1.60
2023-02-09T17:49:40.604Z,1.70
2023-02-09T17:52:11.573Z,1.80
2023-02-09T17:54:38.141Z,1.50
2023-02-09T17:57:05.625Z,1.20
2023-02-09T17:59:32.199Z,1.60
2023-02-09T18:01:58.805Z,1.70
2023-02-09T18:04:28.668Z,1.60
2023-02-09T18:06:57.659Z,1.50
2023-02-09T18:09:24.496Z,1.50
2023-02-09T18:11:51.086Z,1.40
2023-02-09T18:14:19.410Z,2.10
2023-02-09T18:16:47.770Z,1.30
2023-02-09T18:19:15.947Z,1.30
2023-02-09T18:21:54.384Z,1.30
2023-02-09T18:24:23.101Z,1.20
2023-02-09T18:26:51.013Z,1.30
2023-02-09T18:29:20.088Z,1.20
2023-02-09T18:31:46.795Z,1.20
2023-02-09T18:34:14.746Z,1.10
2023-02-09T18:36:41.506Z,1.30
2023-02-09T18:39:08.158Z,1.20
2023-02-09T18:41:34.698Z,1.20
2023-02-09T18:44:01.296Z,3.10
2023-02-09T18:46:27.884Z,1.20
2023-02-09T18:48:54.915Z,1.10
2023-02-09T18:51:22.180Z,1.20
2023-02-09T18:53:50.170Z,1.20
2023-02-09T18:56:21.565Z,1.20
2023-02-09T18:58:49.957Z,1.10
2023-02-09T19:01:19.738Z,1.20
2023-02-09T19:03:48.421Z,1.20
2023-02-09T19:06:15.022Z,1.20
2023-02-09T19:08:41.627Z,1.20
2023-02-09T19:11:13.909Z,1.20
2023-02-09T19:13:40.502Z,1.20
2023-02-09T19:16:11.988Z,1.10
2023-02-09T19:18:39.457Z,1.00
2023-02-09T19:21:07.215Z,1.00
2023-02-09T19:23:33.947Z,1.00
2023-02-09T19:26:02.998Z,0.90
2023-02-09T19:28:29.753Z,1.00
2023-02-09T19:30:56.886Z,1.00
2023-02-09T19:33:23.451Z,1.00
2023-02-09T19:35:57.626Z,1.00
2023-02-09T19:38:25.589Z,0.90
2023-02-09T19:41:08.553Z,1.00
2023-02-09T19:43:35.483Z,0.90
2023-02-09T19:46:02.106Z,0.90
2023-02-09T19:48:28.801Z,0.90
2023-02-09T19:50:57.033Z,0.80
2023-02-09T19:53:24.443Z,0.80
2023-02-09T19:55:52.262Z,0.10
2023-02-09T19:58:22.662Z,0.70
2023-02-09T20:00:50.810Z,0.70
2023-02-09T20:03:18.626Z,0.70
2023-02-09T20:05:45.837Z,0.60
2023-02-09T20:08:15.656Z,0.70
2023-02-09T20:10:43.960Z,0.70
2023-02-09T20:13:14.953Z,0.50
2023-02-09T20:15:43.520Z,0.50
2023-02-09T20:18:10.913Z,0.40
2023-02-09T20:20:42.775Z,0.50
2023-02-09T20:23:09.958Z,0.50
2023-02-09T20:25:39.575Z,0.40
2023-02-09T20:28:06.324Z,0.40
2023-02-09T20:30:33.023Z,0.40
2023-02-09T20:32:59.568Z,0.30
2023-02-09T20:35:27.026Z,0.40
2023-02-09T20:37:53.714Z,0.40
2023-02-09T20:40:20.332Z,0.50
2023-02-09T20:43:05.665Z,0.50
2023-02-09T20:45:51.074Z,0.70
2023-02-09T20:48:18.081Z,0.50
2023-02-09T20:50:45.375Z,0.50
2023-02-09T20:53:12.477Z,0.40
2023-02-09T20:55:39.012Z,0.30
2023-02-09T20:58:05.605Z,0.20
2023-02-09T21:00:32.238Z,0.10
2023-02-09T21:02:58.902Z,0.00
2023-02-09T21:05:25.610Z,0.00
2023-02-09T21:07:52.155Z,0.00
2023-02-09T21:10:18.774Z,0.00
2023-02-09T21:12:46.961Z,0.10
2023-02-09T21:15:14.230Z,0.20
2023-02-09T21:17:47.419Z,0.10
2023-02-09T21:20:15.853Z,0.10
2023-02-09T21:22:42.739Z,0.10
2023-02-09T21:25:10.998Z,0.10
2023-02-09T21:27:37.709Z,0.00
2023-02-09T21:30:05.504Z,0.00
2023-02-09T21:32:35.561Z,0.00
2023-02-09T21:35:02.185Z,-0.10
2023-02-09T21:37:32.115Z,-0.10
2023-02-09T21:40:02.916Z,-0.10
2023-02-09T21:42:31.155Z,0.00
2023-02-09T21:44:58.696Z,0.00
2023-02-09T21:47:36.806Z,-0.30
2023-02-09T21:50:04.242Z,0.00
2023-02-09T21:52:31.550Z,0.30
2023-02-09T21:54:58.130Z,0.00
2023-02-09T21:57:25.925Z,0.10
2023-02-09T21:59:53.068Z,0.10
2023-02-09T22:02:20.400Z,0.20
2023-02-09T22:04:47.058Z,0.30
2023-02-09T22:07:14.467Z,0.40
2023-02-09T22:09:41.322Z,0.40
2023-02-09T22:12:08.503Z,0.50
2023-02-09T22:14:35.163Z,0.70
2023-02-09T22:17:01.746Z,0.70
2023-02-09T22:19:28.361Z,0.70
2023-02-09T22:21:57.626Z,0.70
2023-02-09T22:24:24.905Z,0.70
2023-02-09T22:26:51.616Z,0.80
2023-02-09T22:29:18.514Z,0.80
2023-02-09T22:31:45.224Z,0.90
2023-02-09T22:34:11.940Z,0.90
2023-02-09T22:36:39.664Z,0.90
2023-02-09T22:39:07.189Z,1.10
2023-02-09T22:41:34.073Z,1.10
2023-02-09T22:44:06.484Z,1.10
2023-02-09T22:46:36.254Z,1.10
2023-02-09T22:49:25.022Z,1.20
2023-02-09T22:51:51.830Z,1.20
2023-02-09T22:54:19.620Z,1.20
2023-02-09T22:56:46.751Z,1.20
2023-02-09T22:59:14.824Z,1.20
2023-02-09T23:01:42.713Z,1.30
2023-02-09T23:04:10.089Z,1.30
2023-02-09T23:06:36.706Z,1.30
2023-02-09T23:09:07.245Z,1.30
2023-02-09T23:11:34.232Z,1.30
2023-02-09T23:14:10.535Z,1.40
2023-02-09T23:16:39.391Z,1.40
2023-02-09T23:19:08.001Z,1.30
2023-02-09T23:21:37.994Z,1.30
2023-02-09T23:24:05.157Z,1.30
2023-02-09T23:26:32.174Z,1.30
2023-02-09T23:29:00.766Z,1.40
2023-02-09T23:31:27.842Z,1.40
2023-02-09T23:33:54.850Z,1.00
2023-02-09T23:36:26.979Z,1.40
2023-02-09T23:38:55.493Z,1.30
2023-02-09T23:41:22.500Z,1.30
2023-02-09T23:43:49.738Z,1.30
2023-02-09T23:46:19.325Z,1.30
2023-02-09T23:48:46.422Z,1.40
2023-02-09T23:51:15.671Z,1.40
2023-02-09T23:53:42.296Z,1.40
2023-02-09T23:56:08.926Z,1.40
2023-02-09T23:58:41.345Z,1.40
